Time;durP1;ratioP1;P1;durP2;ratioP2;P2;SDS_P1;SDS_P2;PMS_P1;PMS_P2;Temp;Humidity;BMP_temperature;BMP_pressure;BME280_temperature;BME280_humidity;BME280_pressure;Samples;Min_cycle;Max_cycle;Signal;HPM_P1;HPM_P2
2021/12/21 00:01:21;;;;;;;10.13;5.93;;;-1.20;99.90;;;;;;5050003;28;20520;-75
2021/12/21 00:04:01;;;;;;;14.77;8.37;;;-1.20;99.90;;;;;;5049040;28;20206;-75
2021/12/21 00:06:27;;;;;;;16.97;11.63;;;-1.20;99.90;;;;;;5049816;28;20170;-75
2021/12/21 00:08:53;;;;;;;11.90;7.73;;;-1.50;99.90;;;;;;5049811;28;20202;-75
2021/12/21 00:11:19;;;;;;;9.63;6.30;;;-1.80;99.90;;;;;;5048500;28;20186;-76
2021/12/21 00:16:30;;;;;;;12.97;6.87;;;-1.70;99.90;;;;;;5051769;28;20251;-76
2021/12/21 00:21:35;;;;;;;9.27;5.43;;;-1.60;99.90;;;;;;5053388;28;20231;-76
2021/12/21 00:24:10;;;;;;;13.53;5.67;;;-1.50;99.90;;;;;;5052825;28;20178;-76
2021/12/21 00:26:36;;;;;;;7.97;4.93;;;-1.50;99.90;;;;;;5053024;28;20162;-76
2021/12/21 00:29:03;;;;;;;6.57;5.00;;;-1.50;99.90;;;;;;5053209;28;20202;-77
2021/12/21 00:31:31;;;;;;;12.57;4.97;;;-1.40;99.90;;;;;;5052981;28;20289;-77
2021/12/21 00:33:59;;;;;;;7.50;4.70;;;-1.50;99.90;;;;;;5053133;28;20201;-77
2021/12/21 00:36:27;;;;;;;7.90;4.60;;;-1.60;99.90;;;;;;5052389;28;20269;-77
2021/12/21 00:38:55;;;;;;;7.87;5.07;;;-1.50;99.90;;;;;;5051695;28;20327;-77
2021/12/21 00:41:21;;;;;;;6.93;4.37;;;-1.60;99.90;;;;;;5052837;28;20264;-77
2021/12/21 00:43:47;;;;;;;9.60;4.20;;;-1.70;99.90;;;;;;5051622;28;20182;-77
2021/12/21 00:46:14;;;;;;;6.87;4.80;;;-1.70;99.90;;;;;;5051546;28;20189;-77
2021/12/21 00:48:48;;;;;;;8.67;5.23;;;-1.70;99.90;;;;;;5052614;28;20205;-77
2021/12/21 00:51:14;;;;;;;10.07;4.67;;;-1.90;99.90;;;;;;5051522;28;20171;-77
2021/12/21 00:53:40;;;;;;;9.00;4.53;;;-2.10;99.90;;;;;;5051405;28;20629;-77
2021/12/21 00:56:06;;;;;;;6.90;3.90;;;-2.10;99.90;;;;;;5051771;28;20178;-77
2021/12/21 00:58:31;;;;;;;7.87;4.30;;;-2.00;99.90;;;;;;5052531;28;20251;-77
2021/12/21 01:01:01;;;;;;;7.20;4.17;;;-2.00;99.90;;;;;;5051289;28;20214;-77
2021/12/21 01:03:27;;;;;;;5.77;4.50;;;-1.90;99.90;;;;;;5052543;28;20174;-77
2021/12/21 01:06:05;;;;;;;8.60;5.70;;;-1.80;99.90;;;;;;5052729;28;20178;-77
2021/12/21 01:08:42;;;;;;;6.70;4.60;;;-1.70;99.90;;;;;;5051568;28;20262;-77
2021/12/21 01:11:14;;;;;;;6.90;3.77;;;-1.70;99.90;;;;;;5052796;28;20158;-77
2021/12/21 01:16:19;;;;;;;6.10;3.70;;;-1.60;99.90;;;;;;5052358;28;20261;-77
2021/12/21 01:19:06;;;;;;;8.43;3.27;;;-1.70;99.90;;;;;;5051076;28;20568;-77
2021/12/21 01:21:43;;;;;;;6.47;3.60;;;-1.90;99.90;;;;;;5051115;28;20170;-77
2021/12/21 01:26:56;;;;;;;5.07;3.30;;;-1.90;99.90;;;;;;5052381;28;20189;-77
2021/12/21 01:29:41;;;;;;;8.27;3.90;;;-2.00;99.90;;;;;;5051741;28;20202;-77
2021/12/21 01:32:24;;;;;;;6.63;3.50;;;-1.90;99.90;;;;;;5052080;28;20254;-77
2021/12/21 01:35:00;;;;;;;4.93;3.30;;;-1.90;99.90;;;;;;5051912;28;20251;-77
2021/12/21 01:40:49;;;;;;;5.73;3.43;;;-2.00;99.90;;;;;;5113752;28;20256;-77
2021/12/21 01:43:25;;;;;;;6.47;3.60;;;-2.00;99.90;;;;;;5097102;28;20176;-77
2021/12/21 01:51:30;;;;;;;6.10;3.53;;;-2.30;99.90;;;;;;5106913;28;20187;-77
2021/12/21 01:53:55;;;;;;;9.30;3.30;;;-2.20;99.90;;;;;;5050552;28;20171;-77
2021/12/21 01:56:22;;;;;;;9.07;3.50;;;-2.20;99.90;;;;;;5050483;28;20298;-77
2021/12/21 01:58:48;;;;;;;10.63;4.30;;;-2.10;99.90;;;;;;5050387;27;20242;-77
2021/12/21 02:01:18;;;;;;;9.37;3.70;;;-2.10;99.90;;;;;;5051868;28;20247;-77
2021/12/21 02:03:47;;;;;;;7.40;3.63;;;-2.30;99.90;;;;;;5050765;28;20175;-77
2021/12/21 02:06:16;;;;;;;8.93;3.60;;;-2.60;99.90;;;;;;5050623;28;20274;-77
2021/12/21 02:08:42;;;;;;;7.17;3.80;;;-2.80;99.90;;;;;;5051560;28;20234;-77
2021/12/21 02:11:08;;;;;;;11.10;3.83;;;-2.90;99.90;;;;;;5050779;28;20178;-77
2021/12/21 02:13:36;;;;;;;5.93;3.40;;;-2.90;99.90;;;;;;5050499;28;20186;-77
2021/12/21 02:16:03;;;;;;;8.90;4.33;;;-2.90;99.90;;;;;;5050242;28;20189;-77
2021/12/21 02:18:50;;;;;;;6.37;3.80;;;-2.90;99.90;;;;;;5050148;28;20199;-77
2021/12/21 02:21:28;;;;;;;4.50;3.57;;;-2.90;99.90;;;;;;5051686;28;20208;-77
2021/12/21 02:23:59;;;;;;;6.17;4.53;;;-2.70;99.90;;;;;;5050107;28;20178;-77
2021/12/21 02:26:43;;;;;;;7.93;4.97;;;-2.50;99.90;;;;;;5051197;28;20547;-76
2021/12/21 02:29:15;;;;;;;11.37;5.13;;;-2.50;99.90;;;;;;5051686;28;20194;-76
2021/12/21 02:31:44;;;;;;;10.27;4.50;;;-2.40;99.90;;;;;;5050065;28;20202;-76
2021/12/21 02:34:10;;;;;;;6.67;4.57;;;-2.40;99.90;;;;;;5051163;28;20281;-76
2021/12/21 02:36:38;;;;;;;6.43;4.10;;;-2.50;99.90;;;;;;5049793;28;20217;-76
2021/12/21 02:39:05;;;;;;;6.30;4.33;;;-2.50;99.90;;;;;;5049231;28;20198;-76
2021/12/21 02:41:31;;;;;;;4.90;3.47;;;-2.40;99.90;;;;;;5051083;28;20234;-76
2021/12/21 02:43:57;;;;;;;7.30;3.90;;;-2.50;99.90;;;;;;5051039;28;20201;-76
2021/12/21 02:46:25;;;;;;;5.50;3.90;;;-2.50;99.90;;;;;;5049755;28;20189;-76
2021/12/21 02:48:52;;;;;;;7.07;3.73;;;-2.50;99.90;;;;;;5049875;28;20202;-76
2021/12/21 02:51:18;;;;;;;3.47;3.10;;;-2.40;99.90;;;;;;5050811;28;20173;-76
2021/12/21 02:53:44;;;;;;;8.73;3.37;;;-2.30;99.90;;;;;;5050742;28;20538;-76
2021/12/21 02:56:11;;;;;;;7.00;3.50;;;-2.30;99.90;;;;;;5049711;28;20251;-76
2021/12/21 02:58:37;;;;;;;7.47;3.60;;;-2.20;99.90;;;;;;5049480;28;20232;-76
2021/12/21 03:01:04;;;;;;;4.67;3.40;;;-2.20;99.90;;;;;;5050400;28;20186;-76
2021/12/21 03:03:29;;;;;;;6.43;3.73;;;-2.10;99.90;;;;;;5050348;28;20224;-76
2021/12/21 03:05:57;;;;;;;7.27;3.97;;;-2.10;99.90;;;;;;5051122;28;20175;-76
2021/12/21 03:08:34;;;;;;;12.57;5.37;;;-2.10;99.90;;;;;;5049539;28;20202;-76
2021/12/21 03:16:24;;;;;;;32.07;13.70;;;-2.10;99.90;;;;;;5051109;28;20169;-76
2021/12/21 03:18:52;;;;;;;15.13;6.97;;;-2.10;99.90;;;;;;5050496;28;20194;-76
2021/12/21 03:21:17;;;;;;;9.60;4.70;;;-2.10;99.90;;;;;;5049577;28;20189;-76
2021/12/21 03:23:43;;;;;;;7.50;3.93;;;-2.00;99.90;;;;;;5049389;28;20210;-76
2021/12/21 03:26:09;;;;;;;9.07;4.43;;;-2.00;99.90;;;;;;5049164;28;20178;-76
2021/12/21 03:28:34;;;;;;;10.93;5.77;;;-2.00;99.90;;;;;;5049296;28;20197;-76
2021/12/21 03:31:00;;;;;;;14.40;7.77;;;-2.00;99.90;;;;;;5049088;28;20235;-76
2021/12/21 03:33:26;;;;;;;15.37;6.87;;;-2.10;99.90;;;;;;5049892;28;20194;-76
2021/12/21 03:35:52;;;;;;;8.47;4.97;;;-2.10;99.90;;;;;;5050203;28;20185;-76
2021/12/21 03:38:18;;;;;;;9.17;4.83;;;-2.10;99.90;;;;;;5050103;28;20329;-76
2021/12/21 03:40:44;;;;;;;7.27;4.03;;;-2.10;99.90;;;;;;5049343;28;20258;-76
2021/12/21 03:43:10;;;;;;;8.33;3.70;;;-2.10;99.90;;;;;;5050148;28;20645;-76
2021/12/21 03:45:41;;;;;;;7.13;3.70;;;-2.10;99.90;;;;;;5050169;28;20552;-76
2021/12/21 03:48:12;;;;;;;6.10;3.27;;;-2.10;99.90;;;;;;5048898;28;20194;-76
2021/12/21 03:50:38;;;;;;;7.80;3.20;;;-2.10;99.90;;;;;;5050945;28;20205;-76
2021/12/21 03:53:03;;;;;;;6.57;3.50;;;-2.30;99.90;;;;;;5052955;28;20192;-76
2021/12/21 03:55:29;;;;;;;9.07;3.67;;;-2.30;99.90;;;;;;5053465;28;20178;-76
2021/12/21 03:57:54;;;;;;;7.50;3.67;;;-2.20;99.90;;;;;;5053424;28;20230;-76
2021/12/21 04:00:22;;;;;;;5.73;3.53;;;-2.20;99.90;;;;;;5053492;28;20189;-76
2021/12/21 04:02:48;;;;;;;5.67;3.33;;;-2.20;99.90;;;;;;5053498;28;20185;-76
2021/12/21 04:05:13;;;;;;;6.53;4.00;;;-2.30;99.90;;;;;;5053962;28;20174;-76
2021/12/21 04:07:39;;;;;;;10.87;4.00;;;-2.30;99.90;;;;;;5052377;28;20234;-76
2021/12/21 04:10:05;;;;;;;5.57;3.50;;;-2.30;99.90;;;;;;5052349;28;20209;-76
2021/12/21 04:12:31;;;;;;;7.17;3.80;;;-2.30;99.90;;;;;;5053211;28;20206;-76
2021/12/21 04:14:58;;;;;;;7.03;3.63;;;-2.40;99.90;;;;;;5053612;28;20175;-76
2021/12/21 04:17:24;;;;;;;8.43;5.00;;;-2.40;99.90;;;;;;5052000;28;20194;-76
2021/12/21 04:19:51;;;;;;;10.53;5.10;;;-2.40;99.90;;;;;;5051953;28;20186;-76
2021/12/21 04:22:18;;;;;;;8.53;4.97;;;-2.40;99.90;;;;;;5052093;28;20182;-76
2021/12/21 04:24:43;;;;;;;8.37;4.87;;;-2.50;99.90;;;;;;5051945;28;20225;-76
2021/12/21 04:27:09;;;;;;;6.13;4.00;;;-2.50;99.90;;;;;;5051722;28;20696;-76
2021/12/21 04:29:35;;;;;;;7.73;4.50;;;-2.50;99.90;;;;;;5053355;28;20202;-76
2021/12/21 04:32:01;;;;;;;8.60;3.63;;;-2.50;99.90;;;;;;5053190;28;20181;-77
2021/12/21 04:34:26;;;;;;;5.60;3.30;;;-2.50;99.90;;;;;;5052826;28;20209;-77
2021/12/21 04:36:53;;;;;;;5.40;3.40;;;-2.50;99.90;;;;;;5053227;28;20285;-77
2021/12/21 04:39:34;;;;;;;7.47;3.30;;;-2.60;99.90;;;;;;5052898;28;20178;-77
2021/12/21 04:42:00;;;;;;;4.70;3.30;;;-2.60;99.90;;;;;;5052968;28;20154;-77
2021/12/21 04:44:26;;;;;;;6.33;3.37;;;-2.70;99.90;;;;;;5051706;28;20717;-77
2021/12/21 04:46:51;;;;;;;3.83;3.10;;;-2.70;99.90;;;;;;5051442;28;20206;-77
2021/12/21 04:49:17;;;;;;;7.77;3.10;;;-2.80;99.90;;;;;;5052990;28;20197;-77
2021/12/21 04:51:43;;;;;;;6.70;3.33;;;-2.80;99.90;;;;;;5051563;28;20182;-77
2021/12/21 04:54:08;;;;;;;5.83;3.50;;;-2.80;99.90;;;;;;5052998;28;20227;-77
2021/12/21 04:56:34;;;;;;;6.53;3.60;;;-2.80;99.90;;;;;;5052528;28;20227;-77
2021/12/21 04:58:59;;;;;;;6.30;3.73;;;-2.80;99.90;;;;;;5052872;28;20178;-77
2021/12/21 05:01:25;;;;;;;7.10;4.00;;;-2.80;99.90;;;;;;5052326;28;20178;-77
2021/12/21 05:03:51;;;;;;;4.93;3.33;;;-2.90;99.90;;;;;;5051397;28;20186;-77
2021/12/21 05:06:19;;;;;;;4.00;3.23;;;-2.90;99.90;;;;;;5052786;28;20182;-77
2021/12/21 05:08:52;;;;;;;10.30;3.73;;;-3.00;99.90;;;;;;5051122;28;20255;-77
2021/12/21 05:11:19;;;;;;;8.43;3.60;;;-3.10;99.90;;;;;;5052148;28;20159;-77
2021/12/21 05:13:45;;;;;;;7.17;3.53;;;-3.10;99.90;;;;;;5052618;28;20178;-77
2021/12/21 05:16:10;;;;;;;9.63;4.40;;;-3.10;99.90;;;;;;5052005;28;20174;-77
2021/12/21 05:18:36;;;;;;;9.87;4.80;;;-3.30;99.90;;;;;;5052188;28;20195;-77
2021/12/21 05:21:07;;;;;;;9.77;5.77;;;-3.40;99.90;;;;;;5051076;28;20188;-77
2021/12/21 05:23:32;;;;;;;33.13;18.73;;;-3.50;99.90;;;;;;5051179;28;20644;-81
2021/12/21 05:25:58;;;;;;;29.10;15.40;;;-3.50;99.90;;;;;;5051396;28;20178;-78
2021/12/21 05:28:24;;;;;;;17.73;11.03;;;-3.60;99.90;;;;;;5051457;28;20202;-78
2021/12/21 05:30:49;;;;;;;17.17;10.30;;;-3.60;99.90;;;;;;5051287;28;20175;-77
2021/12/21 05:33:15;;;;;;;22.60;13.10;;;-3.40;99.90;;;;;;5050960;28;20202;-77
2021/12/21 05:35:41;;;;;;;16.90;10.57;;;-3.30;99.90;;;;;;5050794;28;20223;-77
2021/12/21 05:38:09;;;;;;;18.93;9.57;;;-3.30;99.90;;;;;;5052140;28;20281;-77
2021/12/21 05:40:39;;;;;;;15.37;9.80;;;-3.30;99.90;;;;;;5051076;28;20186;-78
2021/12/21 05:43:07;;;;;;;12.97;8.03;;;-3.20;99.90;;;;;;5051539;28;20215;-77
2021/12/21 05:45:33;;;;;;;15.53;10.13;;;-3.10;99.90;;;;;;5051176;28;20273;-77
2021/12/21 05:47:59;;;;;;;25.63;10.73;;;-3.00;99.90;;;;;;5050874;28;20229;-77
2021/12/21 05:50:25;;;;;;;13.47;7.73;;;-3.00;99.90;;;;;;5050721;28;20207;-77
2021/12/21 05:52:50;;;;;;;8.40;4.97;;;-2.90;99.90;;;;;;5051441;28;20167;-76
2021/12/21 05:55:18;;;;;;;11.50;6.20;;;-2.90;99.90;;;;;;5050400;28;20640;-76
2021/12/21 05:57:43;;;;;;;19.37;6.80;;;-2.90;99.90;;;;;;5050490;28;20202;-76
2021/12/21 06:00:15;;;;;;;9.20;6.03;;;-3.10;99.90;;;;;;5050780;28;20188;-76
2021/12/21 06:02:41;;;;;;;10.90;5.00;;;-3.30;99.90;;;;;;5051636;28;20163;-76
2021/12/21 06:05:08;;;;;;;9.27;5.40;;;-3.60;99.90;;;;;;5050432;28;20254;-76
2021/12/21 06:07:34;;;;;;;10.50;5.50;;;-3.70;99.90;;;;;;5051602;28;20198;-76
2021/12/21 06:10:08;;;;;;;11.50;6.27;;;-3.60;99.90;;;;;;5050633;28;20202;-76
2021/12/21 06:15:24;;;;;;;13.90;6.77;;;-3.40;99.90;;;;;;5051415;28;20154;-77
2021/12/21 06:25:58;;;;;;;19.30;10.87;;;-3.10;99.90;;;;;;5051897;28;20166;-76
2021/12/21 06:28:23;;;;;;;17.27;8.17;;;-3.10;99.90;;;;;;5049838;28;20258;-76
2021/12/21 06:30:50;;;;;;;16.43;7.43;;;-3.00;99.90;;;;;;5050315;28;20641;-77
2021/12/21 06:33:16;;;;;;;11.03;7.03;;;-3.00;99.90;;;;;;5049871;28;20209;-76
2021/12/21 06:35:41;;;;;;;13.70;7.40;;;-3.00;99.90;;;;;;5051409;28;20182;-77
2021/12/21 06:38:08;;;;;;;14.63;8.17;;;-3.00;99.90;;;;;;5049813;28;20281;-76
2021/12/21 06:40:34;;;;;;;18.63;9.53;;;-3.00;99.90;;;;;;5051230;28;20211;-76
2021/12/21 06:43:01;;;;;;;100.90;39.47;;;-3.10;99.90;;;;;;5051244;28;20170;-76
2021/12/21 06:46:19;;;;;;;122.43;46.53;;;-3.30;99.90;;;;;;5051509;28;20194;-76
2021/12/21 06:53:37;;;;;;;18.43;7.73;;;-3.50;99.90;;;;;;5051598;28;20162;-77
2021/12/21 06:56:04;;;;;;;19.70;10.37;;;-3.50;99.90;;;;;;5050704;28;20181;-77
2021/12/21 06:58:30;;;;;;;25.40;13.53;;;-3.50;99.90;;;;;;5050054;27;20265;-77
2021/12/21 07:00:56;;;;;;;35.83;18.03;;;-3.40;99.90;;;;;;5049589;28;20198;-77
2021/12/21 07:03:22;;;;;;;42.43;21.33;;;-3.30;99.90;;;;;;5050664;28;20209;-77
2021/12/21 07:05:50;;;;;;;52.67;24.70;;;-3.30;99.90;;;;;;5049545;28;20186;-77
2021/12/21 07:08:20;;;;;;;39.77;23.40;;;-3.20;99.90;;;;;;5049645;28;20202;-77
2021/12/21 07:10:54;;;;;;;47.30;22.10;;;-3.20;99.90;;;;;;5050567;28;20194;-77
2021/12/21 07:18:54;;;;;;;36.17;18.80;;;-3.20;99.90;;;;;;5049686;28;20177;-77
2021/12/21 07:21:20;;;;;;;37.77;18.77;;;-3.10;99.90;;;;;;5050501;28;20179;-77
2021/12/21 07:23:45;;;;;;;34.43;19.23;;;-3.10;99.90;;;;;;5050719;28;20185;-77
2021/12/21 07:26:11;;;;;;;36.57;19.00;;;-3.00;99.90;;;;;;5049027;28;20211;-77
2021/12/21 07:28:36;;;;;;;39.00;20.60;;;-3.10;99.90;;;;;;5049308;28;20248;-77
2021/12/21 07:31:02;;;;;;;43.77;22.27;;;-3.00;99.90;;;;;;5050878;28;20181;-77
2021/12/21 07:33:28;;;;;;;30.07;16.33;;;-3.00;99.90;;;;;;5050256;28;20202;-77
2021/12/21 07:35:53;;;;;;;24.63;12.17;;;-3.20;99.90;;;;;;5048997;28;20196;-77
2021/12/21 07:38:22;;;;;;;29.13;13.17;;;-3.40;99.90;;;;;;5050261;28;20194;-77
2021/12/21 07:40:48;;;;;;;31.33;14.20;;;-3.60;99.90;;;;;;5050522;28;20637;-77
2021/12/21 07:43:13;;;;;;;25.53;14.77;;;-3.60;99.90;;;;;;5048900;28;20208;-77
2021/12/21 07:45:39;;;;;;;30.17;16.50;;;-3.80;99.90;;;;;;5049031;28;20190;-84
2021/12/21 07:48:05;;;;;;;37.87;14.53;;;-3.80;99.90;;;;;;5048778;28;20202;-77
2021/12/21 07:50:30;;;;;;;25.53;11.30;;;-3.90;99.90;;;;;;5048953;28;20197;-77
2021/12/21 07:52:57;;;;;;;17.30;9.40;;;-4.10;99.90;;;;;;5048464;28;20183;-77
2021/12/21 07:55:23;;;;;;;16.60;8.83;;;-4.00;99.90;;;;;;5047490;28;20178;-77
2021/12/21 07:57:49;;;;;;;18.73;9.33;;;-3.90;99.90;;;;;;5049224;28;20194;-77
2021/12/21 08:00:15;;;;;;;19.43;10.70;;;-3.90;99.90;;;;;;5049991;28;20634;-77
2021/12/21 08:02:41;;;;;;;30.40;15.80;;;-3.90;99.90;;;;;;5049919;28;20181;-77
2021/12/21 08:05:08;;;;;;;19.03;9.70;;;-3.80;99.90;;;;;;5048943;28;20185;-77
2021/12/21 08:07:45;;;;;;;19.20;10.70;;;-3.80;99.90;;;;;;5049505;28;20202;-77
2021/12/21 08:10:27;;;;;;;25.60;14.80;;;-3.70;99.90;;;;;;5048607;28;20198;-77
2021/12/21 08:12:53;;;;;;;30.13;15.93;;;-3.50;99.90;;;;;;5048705;28;20167;-76
2021/12/21 08:15:18;;;;;;;36.77;21.20;;;-3.30;99.90;;;;;;5049763;28;20174;-76
2021/12/21 08:17:44;;;;;;;42.87;23.53;;;-3.10;99.90;;;;;;5048518;28;20198;-76
2021/12/21 08:20:10;;;;;;;40.33;22.97;;;-2.90;99.90;;;;;;5049701;28;20175;-76
2021/12/21 08:22:35;;;;;;;39.33;22.00;;;-2.90;99.90;;;;;;5049266;28;20185;-76
2021/12/21 08:25:01;;;;;;;37.53;23.93;;;-2.80;99.90;;;;;;5048748;28;20705;-76
2021/12/21 08:27:26;;;;;;;33.03;19.60;;;-2.70;99.90;;;;;;5049270;28;20294;-76
2021/12/21 08:29:52;;;;;;;30.53;18.70;;;-2.60;99.90;;;;;;5049004;28;20214;-84
2021/12/21 08:32:17;;;;;;;32.67;15.23;;;-2.40;99.90;;;;;;5048378;28;20293;-77
2021/12/21 08:34:43;;;;;;;48.83;26.30;;;-2.40;99.90;;;;;;5049497;28;20261;-77
2021/12/21 08:37:08;;;;;;;46.20;26.83;;;-2.40;99.90;;;;;;5049998;28;20247;-76
2021/12/21 08:39:41;;;;;;;23.27;13.13;;;-2.30;99.90;;;;;;5051839;28;20179;-77
2021/12/21 08:42:11;;;;;;;22.93;13.93;;;-2.30;99.90;;;;;;5052910;28;20163;-76
2021/12/21 08:44:37;;;;;;;21.10;12.43;;;-2.10;99.90;;;;;;5051988;28;20238;-76
2021/12/21 08:47:03;;;;;;;16.50;9.83;;;-2.10;99.90;;;;;;5052666;28;20240;-76
2021/12/21 08:49:29;;;;;;;15.83;11.77;;;-2.00;99.90;;;;;;5051465;28;20250;-76
2021/12/21 08:51:56;;;;;;;17.43;12.93;;;-1.90;99.90;;;;;;5052493;28;20524;-76
2021/12/21 08:54:21;;;;;;;16.27;11.40;;;-1.90;99.90;;;;;;5051589;28;20201;-76
2021/12/21 08:56:48;;;;;;;14.63;9.07;;;-1.80;99.90;;;;;;5052588;28;20680;-76
2021/12/21 08:59:15;;;;;;;11.20;7.43;;;-1.80;99.90;;;;;;5052597;28;20185;-76
2021/12/21 09:01:42;;;;;;;12.67;8.03;;;-1.70;99.90;;;;;;5051540;28;20192;-76
2021/12/21 09:04:07;;;;;;;13.90;7.33;;;-1.70;99.90;;;;;;5051347;28;20552;-76
2021/12/21 09:06:33;;;;;;;30.13;14.13;;;-1.60;99.90;;;;;;5052682;28;20179;-76
2021/12/21 09:08:58;;;;;;;19.87;10.23;;;-1.60;99.90;;;;;;5051304;28;20216;-76
2021/12/21 09:11:24;;;;;;;15.50;8.07;;;-1.50;99.90;;;;;;5051375;28;20227;-76
2021/12/21 09:13:50;;;;;;;10.53;6.57;;;-1.50;99.90;;;;;;5052638;28;20254;-76
2021/12/21 09:16:17;;;;;;;11.07;7.23;;;-1.40;99.90;;;;;;5051215;28;20186;-76
2021/12/21 09:18:43;;;;;;;9.77;7.17;;;-1.40;99.90;;;;;;5051056;28;20206;-76
2021/12/21 09:21:09;;;;;;;8.80;6.07;;;-1.40;99.90;;;;;;5051415;28;20183;-76
2021/12/21 09:23:34;;;;;;;15.20;8.70;;;-1.30;99.90;;;;;;5051329;28;20186;-76
2021/12/21 09:26:00;;;;;;;12.37;7.63;;;-1.20;99.90;;;;;;5053038;28;20183;-80
2021/12/21 09:28:26;;;;;;;13.97;7.20;;;-1.10;99.90;;;;;;5050952;28;20289;-77
2021/12/21 09:30:51;;;;;;;12.43;7.23;;;-1.10;99.90;;;;;;5052331;28;20273;-77
2021/12/21 09:33:17;;;;;;;13.07;7.53;;;-1.00;99.90;;;;;;5052053;28;20190;-77
2021/12/21 09:35:42;;;;;;;13.00;8.27;;;-0.90;99.90;;;;;;5050831;28;20171;-77
2021/12/21 09:38:08;;;;;;;13.17;9.00;;;-0.90;99.90;;;;;;5052253;28;20194;-77
2021/12/21 09:40:39;;;;;;;12.73;8.10;;;-0.80;99.90;;;;;;5050715;28;20192;-77
2021/12/21 09:43:08;;;;;;;12.40;8.00;;;-0.80;99.90;;;;;;5051883;28;20231;-77
2021/12/21 09:45:33;;;;;;;12.73;8.47;;;-0.80;99.90;;;;;;5050766;28;20186;-77
2021/12/21 09:47:59;;;;;;;14.17;8.23;;;-0.90;99.90;;;;;;5050767;28;20216;-77
2021/12/21 09:50:28;;;;;;;14.07;8.80;;;-0.90;99.90;;;;;;5050581;28;20227;-77
2021/12/21 09:52:54;;;;;;;14.30;9.10;;;-0.80;99.90;;;;;;5051734;28;20171;-77
2021/12/21 09:55:20;;;;;;;15.17;10.43;;;-0.80;99.90;;;;;;5051797;28;20201;-77
2021/12/21 09:57:48;;;;;;;19.70;10.60;;;-0.80;99.90;;;;;;5050526;28;20669;-77
2021/12/21 10:00:25;;;;;;;15.53;10.90;;;-0.70;99.90;;;;;;5051602;28;20185;-77
2021/12/21 10:02:51;;;;;;;18.97;11.40;;;-0.60;99.90;;;;;;5051060;28;20178;-77
2021/12/21 10:05:20;;;;;;;18.63;10.93;;;-0.70;99.90;;;;;;5051872;28;20174;-77
2021/12/21 10:07:57;;;;;;;15.60;9.80;;;-0.60;99.90;;;;;;5051797;28;20194;-77
2021/12/21 10:10:23;;;;;;;18.97;9.43;;;-0.50;99.90;;;;;;5051723;28;20206;-77
2021/12/21 10:12:48;;;;;;;12.93;8.87;;;-0.50;99.90;;;;;;5051084;28;20234;-77
2021/12/21 10:15:22;;;;;;;16.70;10.60;;;-0.40;99.90;;;;;;5050197;28;20245;-77
2021/12/21 10:17:54;;;;;;;23.80;11.97;;;-0.40;99.90;;;;;;5050577;28;20201;-77
2021/12/21 10:20:35;;;;;;;18.13;11.80;;;-0.40;99.90;;;;;;5050478;28;20186;-77
2021/12/21 10:23:12;;;;;;;17.20;12.03;;;-0.40;99.90;;;;;;5050049;28;20181;-77
2021/12/21 10:25:44;;;;;;;16.17;12.27;;;-0.40;99.90;;;;;;5050099;28;20185;-77
2021/12/21 10:28:10;;;;;;;15.13;11.27;;;-0.40;99.90;;;;;;5050030;28;20213;-77
2021/12/21 10:30:47;;;;;;;18.43;12.27;;;-0.40;99.90;;;;;;5049890;28;20209;-77
2021/12/21 10:33:12;;;;;;;13.80;10.50;;;-0.40;99.90;;;;;;5049233;28;20269;-77
2021/12/21 10:35:38;;;;;;;18.70;10.60;;;-0.40;99.90;;;;;;5049982;28;20187;-77
2021/12/21 10:38:05;;;;;;;16.87;11.00;;;-0.20;99.90;;;;;;5051103;28;20194;-77
2021/12/21 10:40:31;;;;;;;18.20;11.13;;;-0.20;99.90;;;;;;5050021;28;20171;-77
2021/12/21 10:42:58;;;;;;;14.47;9.97;;;-0.20;99.90;;;;;;5048374;28;20178;-84
2021/12/21 10:45:33;;;;;;;17.50;10.30;;;-0.10;99.90;;;;;;5050915;28;20209;-77
2021/12/21 10:48:00;;;;;;;15.77;10.17;;;-0.20;99.90;;;;;;5050213;28;20270;-78
2021/12/21 10:50:29;;;;;;;17.70;10.13;;;-0.10;99.90;;;;;;5049089;28;20198;-78
2021/12/21 10:52:58;;;;;;;16.47;8.57;;;0.00;99.90;;;;;;5047961;28;20174;-77
2021/12/21 10:55:29;;;;;;;13.60;8.70;;;0.00;99.90;;;;;;5047726;28;20176;-77
2021/12/21 10:58:01;;;;;;;13.53;8.37;;;0.00;99.90;;;;;;5050773;28;20239;-77
2021/12/21 11:00:26;;;;;;;11.30;7.83;;;0.10;99.90;;;;;;5050310;28;20212;-77
2021/12/21 11:02:55;;;;;;;14.23;8.47;;;0.20;99.90;;;;;;5049682;28;20209;-78
2021/12/21 11:05:21;;;;;;;13.03;8.20;;;0.10;99.90;;;;;;5050766;28;20227;-82
2021/12/21 11:07:52;;;;;;;15.03;8.30;;;0.20;99.90;;;;;;5049982;28;20601;-78
2021/12/21 11:10:27;;;;;;;16.37;8.93;;;0.20;99.90;;;;;;5050950;28;20214;-78
2021/12/21 11:13:00;;;;;;;13.63;9.03;;;0.30;99.90;;;;;;5049526;28;20180;-78
2021/12/21 11:15:29;;;;;;;14.37;9.60;;;0.20;99.90;;;;;;5050605;28;20189;-78
2021/12/21 11:18:14;;;;;;;14.83;9.63;;;0.20;99.90;;;;;;5050948;28;20201;-78
2021/12/21 11:20:43;;;;;;;16.53;9.80;;;0.30;99.90;;;;;;5050353;28;20206;-78
2021/12/21 11:23:12;;;;;;;14.20;9.23;;;0.40;99.90;;;;;;5050829;28;20195;-78
2021/12/21 11:25:39;;;;;;;19.27;9.37;;;0.40;99.90;;;;;;5050122;28;20208;-78
2021/12/21 11:28:05;;;;;;;11.90;8.07;;;0.50;99.90;;;;;;5049150;28;20205;-78
2021/12/21 11:30:33;;;;;;;14.07;8.57;;;0.50;99.90;;;;;;5050314;28;20194;-78
2021/12/21 11:33:02;;;;;;;9.57;7.57;;;0.50;99.90;;;;;;5049894;28;20175;-78
2021/12/21 11:38:02;;;;;;;19.10;8.73;;;0.60;99.90;;;;;;5050540;28;20679;-78
2021/12/21 11:40:30;;;;;;;21.03;9.63;;;0.70;99.90;;;;;;5049049;28;20250;-78
2021/12/21 11:43:21;;;;;;;19.43;12.83;;;0.70;99.90;;;;;;5050443;28;20174;-78
2021/12/21 11:45:56;;;;;;;15.00;9.70;;;0.70;99.90;;;;;;5049671;28;20182;-78
2021/12/21 11:48:35;;;;;;;16.17;11.10;;;0.70;99.90;;;;;;5049475;28;20224;-78
2021/12/21 11:51:09;;;;;;;19.80;13.33;;;0.80;99.90;;;;;;5049802;28;20178;-78
2021/12/21 11:53:35;;;;;;;13.63;10.40;;;0.80;99.90;;;;;;5050083;28;20158;-78
2021/12/21 11:56:01;;;;;;;20.37;13.13;;;0.80;99.90;;;;;;5050038;28;20235;-78
2021/12/21 11:58:32;;;;;;;20.23;14.17;;;0.80;99.90;;;;;;5048737;27;20289;-78
2021/12/21 12:01:00;;;;;;;18.60;14.17;;;0.80;99.90;;;;;;5049616;28;20177;-78
2021/12/21 12:03:29;;;;;;;15.37;12.20;;;0.90;99.90;;;;;;5048705;28;20221;-78
2021/12/21 12:06:01;;;;;;;12.17;8.40;;;1.00;99.90;;;;;;5049036;28;20268;-78
2021/12/21 12:08:50;;;;;;;16.70;11.97;;;1.00;99.90;;;;;;5048677;28;20221;-78
2021/12/21 12:11:39;;;;;;;20.67;14.30;;;1.00;99.90;;;;;;5049369;27;20190;-78
2021/12/21 12:14:22;;;;;;;16.70;11.63;;;1.00;99.90;;;;;;5052173;28;20175;-78
2021/12/21 12:16:53;;;;;;;16.83;12.60;;;0.90;99.90;;;;;;5052350;28;20241;-78
2021/12/21 12:19:22;;;;;;;11.43;8.30;;;0.90;99.90;;;;;;5052509;28;20174;-78
2021/12/21 12:22:00;;;;;;;9.47;8.40;;;0.90;99.90;;;;;;5053232;28;20202;-78
2021/12/21 12:24:32;;;;;;;11.77;8.57;;;0.90;99.90;;;;;;5053151;28;20174;-78
2021/12/21 12:27:09;;;;;;;13.40;7.90;;;1.00;99.90;;;;;;5053176;28;20186;-78
2021/12/21 12:29:53;;;;;;;10.90;7.13;;;1.00;99.90;;;;;;5052462;28;20194;-78
2021/12/21 12:32:37;;;;;;;11.37;7.10;;;1.00;99.90;;;;;;5052566;28;20166;-78
2021/12/21 12:35:11;;;;;;;9.73;7.10;;;1.00;99.90;;;;;;5052388;28;20182;-78
2021/12/21 12:38:00;;;;;;;9.43;6.50;;;1.00;99.90;;;;;;5051725;28;20246;-78
2021/12/21 12:40:39;;;;;;;12.10;6.47;;;1.00;99.90;;;;;;5053228;28;20162;-78
2021/12/21 12:43:10;;;;;;;9.57;5.97;;;1.00;99.90;;;;;;5051927;28;20224;-82
2021/12/21 12:45:39;;;;;;;10.07;5.83;;;1.00;99.90;;;;;;5051040;28;20189;-78
2021/12/21 12:48:32;;;;;;;7.97;6.20;;;1.00;99.90;;;;;;5052818;28;20194;-78
2021/12/21 12:51:04;;;;;;;12.87;5.67;;;1.10;99.90;;;;;;5051752;28;20330;-78
2021/12/21 12:53:39;;;;;;;7.93;6.00;;;1.10;99.90;;;;;;5052956;28;20165;-78
2021/12/21 12:56:08;;;;;;;12.17;6.07;;;1.10;99.90;;;;;;5051799;28;20185;-78
2021/12/21 12:59:17;;;;;;;9.97;5.80;;;1.10;99.90;;;;;;5052730;28;20201;-77
2021/12/21 13:01:48;;;;;;;8.83;6.27;;;1.10;99.90;;;;;;5051520;28;20641;-77
2021/12/21 13:04:16;;;;;;;12.67;6.83;;;1.10;99.90;;;;;;5052590;28;20159;-77
2021/12/21 13:06:46;;;;;;;11.50;6.90;;;1.10;99.90;;;;;;5051333;28;20265;-77
2021/12/21 13:09:18;;;;;;;10.90;7.20;;;1.20;99.90;;;;;;5052421;28;20218;-77
2021/12/21 13:11:43;;;;;;;11.70;7.17;;;1.20;99.90;;;;;;5052162;28;20253;-77
2021/12/21 13:14:12;;;;;;;9.33;6.23;;;1.20;99.90;;;;;;5051163;28;20270;-77
2021/12/21 13:16:39;;;;;;;11.60;7.20;;;1.20;99.90;;;;;;5051405;28;20179;-77
2021/12/21 13:19:13;;;;;;;14.60;9.63;;;1.20;99.90;;;;;;5051729;28;20189;-77
2021/12/21 13:21:48;;;;;;;25.30;16.70;;;1.10;99.90;;;;;;5051784;28;20178;-77
2021/12/21 13:24:25;;;;;;;28.70;15.17;;;1.10;99.90;;;;;;5051271;28;20203;-78
2021/12/21 13:26:55;;;;;;;27.83;16.60;;;1.10;99.90;;;;;;5051012;28;20200;-77
2021/12/21 13:29:32;;;;;;;19.83;13.93;;;1.10;99.90;;;;;;5052397;28;20195;-77
2021/12/21 13:32:00;;;;;;;15.50;9.87;;;1.10;99.90;;;;;;5052228;28;20156;-77
2021/12/21 13:34:27;;;;;;;10.57;8.23;;;1.10;99.90;;;;;;5051129;28;20190;-77
2021/12/21 13:36:59;;;;;;;12.70;7.73;;;1.10;99.90;;;;;;5051986;28;20281;-77
2021/12/21 13:39:39;;;;;;;12.50;6.83;;;1.10;99.90;;;;;;5052490;27;20182;-77